Time;durP1;ratioP1;P1;durP2;ratioP2;P2;SDS_P1;SDS_P2;PMS_P1;PMS_P2;Temp;Humidity;BMP_temperature;BMP_pressure;BME280_temperature;BME280_humidity;BME280_pressure;Samples;Min_cycle;Max_cycle;Signal;HPM_P1;HPM_P2
2022/08/21 00:01:28;;;;;;;1.75;0.90;;;24.80;63.00;;;;;;6098026;23;20054;-69
2022/08/21 00:03:55;;;;;;;3.17;1.10;;;24.80;63.00;;;;;;6097353;23;20015;-69
2022/08/21 00:06:23;;;;;;;2.10;0.73;;;24.80;63.90;;;;;;6097660;23;20077;-69
2022/08/21 00:08:50;;;;;;;5.00;0.88;;;24.80;63.10;;;;;;6097657;23;20349;-70
2022/08/21 00:11:16;;;;;;;3.10;0.90;;;24.80;63.00;;;;;;6097557;23;20013;-70
2022/08/21 00:13:42;;;;;;;4.28;0.98;;;24.80;63.80;;;;;;6097273;23;19998;-70
2022/08/21 00:16:08;;;;;;;8.10;1.00;;;24.80;64.70;;;;;;6097319;23;20026;-69
2022/08/21 00:18:34;;;;;;;1.10;0.75;;;24.80;64.80;;;;;;6097725;23;20429;-70
2022/08/21 00:20:59;;;;;;;1.50;0.80;;;24.80;64.80;;;;;;6097563;23;20003;-70
2022/08/21 00:23:25;;;;;;;3.67;0.80;;;24.80;64.90;;;;;;6097631;23;20006;-70
2022/08/21 00:25:51;;;;;;;2.70;0.70;;;24.70;64.40;;;;;;6097711;23;20013;-70
2022/08/21 00:28:17;;;;;;;3.55;0.77;;;24.70;63.30;;;;;;6097108;23;20014;-70
2022/08/21 00:30:46;;;;;;;3.63;0.90;;;24.70;63.00;;;;;;6097380;23;20434;-70
2022/08/21 00:33:12;;;;;;;4.70;1.02;;;24.70;62.80;;;;;;6097639;23;20329;-70
2022/08/21 00:35:41;;;;;;;3.28;1.00;;;24.80;63.30;;;;;;6097157;23;20012;-70
2022/08/21 00:38:08;;;;;;;2.38;1.00;;;24.80;63.90;;;;;;6097641;23;20302;-70
2022/08/21 00:40:50;;;;;;;6.07;1.30;;;24.80;64.10;;;;;;6097507;23;20006;-70
2022/08/21 00:43:18;;;;;;;;;;;24.80;64.80;;;;;;6097883;23;20425;-70
2022/08/21 00:45:45;;;;;;;7.68;1.77;;;24.70;67.30;;;;;;6097289;23;19901;-70
2022/08/21 00:48:11;;;;;;;5.95;1.60;;;24.70;68.20;;;;;;6097458;23;20092;-70
2022/08/21 00:50:42;;;;;;;3.90;1.20;;;24.70;68.60;;;;;;6096877;23;20421;-70
2022/08/21 00:53:09;;;;;;;5.10;1.40;;;24.70;69.10;;;;;;6096796;23;20006;-70
2022/08/21 00:55:36;;;;;;;7.10;2.00;;;24.70;69.20;;;;;;6096708;23;20007;-70
2022/08/21 00:58:05;;;;;;;4.32;1.45;;;24.70;69.20;;;;;;6095466;23;20433;-70
2022/08/21 01:00:34;;;;;;;4.72;1.48;;;24.60;69.10;;;;;;6094009;23;20017;-70
2022/08/21 01:03:05;;;;;;;7.30;2.65;;;24.60;69.10;;;;;;6093963;23;20341;-70
2022/08/21 01:05:31;;;;;;;4.72;1.83;;;24.60;69.00;;;;;;6095935;23;20329;-70
2022/08/21 01:07:57;;;;;;;5.40;1.60;;;24.60;69.10;;;;;;6097116;23;20009;-70
2022/08/21 01:10:23;;;;;;;6.82;1.73;;;24.60;69.20;;;;;;6071422;23;20038;-70
2022/08/21 01:12:51;;;;;;;4.68;1.60;;;24.50;69.20;;;;;;6096853;23;20054;-70
2022/08/21 01:15:18;;;;;;;7.82;1.67;;;24.50;69.30;;;;;;6096968;23;20006;-70
2022/08/21 01:17:43;;;;;;;6.93;1.88;;;24.50;69.40;;;;;;6097124;23;20337;-69
2022/08/21 01:20:11;;;;;;;3.03;1.55;;;24.50;69.20;;;;;;6096673;23;20005;-70
2022/08/21 01:22:38;;;;;;;5.15;1.38;;;24.50;69.10;;;;;;6096754;23;20003;-70
2022/08/21 01:25:06;;;;;;;4.05;1.58;;;24.40;68.30;;;;;;6096713;23;20014;-70
2022/08/21 01:27:32;;;;;;;4.43;1.40;;;24.40;67.80;;;;;;6096518;23;20028;-70
2022/08/21 01:30:07;;;;;;;7.85;1.38;;;24.40;68.00;;;;;;6097219;23;20074;-70
2022/08/21 01:32:33;;;;;;;2.25;1.05;;;24.40;68.10;;;;;;6096413;23;20010;-70
2022/08/21 01:34:59;;;;;;;5.65;1.08;;;24.40;67.90;;;;;;6096660;23;20002;-70
2022/08/21 01:37:25;;;;;;;2.63;0.85;;;24.40;66.90;;;;;;6097113;23;20097;-70
2022/08/21 01:39:51;;;;;;;2.53;0.75;;;24.30;65.60;;;;;;6096869;23;20441;-70
2022/08/21 01:42:17;;;;;;;7.88;2.08;;;24.30;64.70;;;;;;6097476;23;20014;-69
2022/08/21 01:44:43;;;;;;;3.50;0.70;;;24.30;64.20;;;;;;6096808;23;20053;-70
2022/08/21 01:47:12;;;;;;;2.33;0.70;;;24.20;64.00;;;;;;6096810;23;19998;-70
2022/08/21 01:49:38;;;;;;;1.90;0.73;;;24.30;63.10;;;;;;6096970;23;20058;-70
2022/08/21 01:52:05;;;;;;;5.15;0.70;;;24.20;61.80;;;;;;6097132;23;20003;-70
2022/08/21 01:54:31;;;;;;;2.38;0.60;;;24.20;60.90;;;;;;6096987;23;20050;-70
2022/08/21 01:56:57;;;;;;;1.48;0.80;;;24.20;60.30;;;;;;6096716;23;20437;-70
2022/08/21 01:59:24;;;;;;;2.60;0.68;;;24.20;60.20;;;;;;6096848;23;20014;-70
2022/08/21 02:01:50;;;;;;;1.13;0.60;;;24.10;60.30;;;;;;6097022;23;20037;-70
2022/08/21 02:04:16;;;;;;;4.63;0.68;;;24.20;60.50;;;;;;6097093;23;20011;-70
2022/08/21 02:06:43;;;;;;;2.63;0.80;;;24.20;60.40;;;;;;6096511;23;20026;-69
2022/08/21 02:09:10;;;;;;;1.25;0.60;;;24.10;60.50;;;;;;6096625;23;20003;-70
2022/08/21 02:11:40;;;;;;;1.38;0.70;;;24.10;60.40;;;;;;6096772;23;20010;-70
2022/08/21 02:14:13;;;;;;;1.33;0.70;;;24.10;60.50;;;;;;6097162;23;20007;-70
2022/08/21 02:16:41;;;;;;;1.73;0.75;;;24.00;60.90;;;;;;6096940;23;20010;-70
2022/08/21 02:19:07;;;;;;;7.57;1.13;;;24.10;61.00;;;;;;6096826;23;20030;-70
2022/08/21 02:21:33;;;;;;;1.33;0.88;;;24.00;60.70;;;;;;6096932;23;20085;-70
2022/08/21 02:23:59;;;;;;;4.05;0.77;;;24.00;60.70;;;;;;6096759;23;20030;-70
2022/08/21 02:26:25;;;;;;;3.85;0.68;;;24.00;60.70;;;;;;6097003;23;20002;-70
2022/08/21 02:28:51;;;;;;;2.05;0.95;;;24.00;60.60;;;;;;6096420;23;20018;-70
2022/08/21 02:31:17;;;;;;;1.98;0.95;;;24.00;60.50;;;;;;6097052;23;20010;-70
2022/08/21 02:33:43;;;;;;;3.72;0.80;;;24.00;60.60;;;;;;6098826;23;20002;-70
2022/08/21 02:36:10;;;;;;;3.00;0.73;;;24.00;60.80;;;;;;6098589;23;20021;-70
2022/08/21 02:38:38;;;;;;;1.88;0.57;;;23.90;61.30;;;;;;6073228;23;20022;-70
2022/08/21 02:41:07;;;;;;;2.65;0.70;;;24.00;61.40;;;;;;6098769;23;20065;-69
2022/08/21 02:43:33;;;;;;;1.83;0.73;;;23.90;61.40;;;;;;6098928;23;20010;-69
2022/08/21 02:45:59;;;;;;;2.33;0.80;;;23.90;61.00;;;;;;6098512;23;20381;-70
2022/08/21 02:48:28;;;;;;;1.83;0.70;;;23.90;60.90;;;;;;6098625;23;19999;-70
2022/08/21 02:51:01;;;;;;;2.17;0.57;;;23.90;60.90;;;;;;6098439;23;20009;-69
2022/08/21 02:53:28;;;;;;;0.52;0.50;;;23.90;60.70;;;;;;6098453;23;19999;-70
2022/08/21 02:55:55;;;;;;;2.80;0.65;;;23.90;60.70;;;;;;6098311;23;20460;-70
2022/08/21 02:58:31;;;;;;;2.83;0.50;;;23.90;60.70;;;;;;6097754;23;20374;-70
2022/08/21 03:00:58;;;;;;;1.15;0.65;;;23.90;60.60;;;;;;6098406;23;20006;-70
2022/08/21 03:03:24;;;;;;;2.55;0.70;;;23.90;60.40;;;;;;6098662;23;20011;-70
2022/08/21 03:05:51;;;;;;;1.73;1.05;;;23.80;60.30;;;;;;6098832;23;20003;-71
2022/08/21 03:08:18;;;;;;;1.02;0.73;;;23.80;60.40;;;;;;6098489;23;19998;-70
2022/08/21 03:10:52;;;;;;;2.25;0.65;;;23.80;60.40;;;;;;6098490;23;20373;-70
2022/08/21 03:13:20;;;;;;;1.30;0.68;;;23.80;60.80;;;;;;6098071;23;20358;-70
2022/08/21 03:15:46;;;;;;;4.05;0.90;;;23.80;61.30;;;;;;6072361;23;20022;-69
2022/08/21 03:18:12;;;;;;;6.28;1.10;;;23.80;61.80;;;;;;6098316;23;20437;-70
2022/08/21 03:20:40;;;;;;;6.65;1.00;;;23.80;62.30;;;;;;6098130;23;20007;-69
2022/08/21 03:23:07;;;;;;;2.85;0.82;;;23.70;62.70;;;;;;6098192;23;20007;-70
2022/08/21 03:25:34;;;;;;;2.80;0.98;;;23.70;62.90;;;;;;6098259;23;20014;-70
2022/08/21 03:28:01;;;;;;;2.90;1.00;;;23.70;63.30;;;;;;6072575;23;20022;-70
2022/08/21 03:30:27;;;;;;;5.30;1.10;;;23.70;63.80;;;;;;6097958;23;20077;-71
2022/08/21 03:32:53;;;;;;;8.40;1.02;;;23.70;63.80;;;;;;6097944;23;20479;-71
2022/08/21 03:35:20;;;;;;;1.58;0.90;;;23.70;64.40;;;;;;6098228;23;20024;-71
2022/08/21 03:37:46;;;;;;;5.70;1.17;;;23.60;64.80;;;;;;6097839;23;20003;-70
2022/08/21 03:40:15;;;;;;;4.22;1.00;;;23.60;65.30;;;;;;6097657;23;20009;-70
2022/08/21 03:42:41;;;;;;;2.75;1.40;;;23.60;65.60;;;;;;6097895;23;20009;-70
2022/08/21 03:45:08;;;;;;;5.90;1.10;;;23.60;65.80;;;;;;6098018;23;19999;-70
2022/08/21 03:47:34;;;;;;;3.15;1.10;;;23.60;66.30;;;;;;6098114;23;20003;-70
2022/08/21 03:50:01;;;;;;;8.48;1.30;;;23.50;66.50;;;;;;6097815;23;20006;-69
2022/08/21 03:52:27;;;;;;;4.35;1.00;;;23.50;66.50;;;;;;6097671;23;19999;-70
2022/08/21 03:54:52;;;;;;;1.10;0.88;;;23.50;66.10;;;;;;6097750;23;20071;-70
2022/08/21 03:57:18;;;;;;;4.47;1.10;;;23.40;65.20;;;;;;6097504;23;20441;-71
2022/08/21 03:59:44;;;;;;;4.50;1.27;;;23.40;64.30;;;;;;6097792;23;20005;-70
2022/08/21 04:02:16;;;;;;;2.05;0.90;;;23.40;63.90;;;;;;6097789;23;20038;-70
2022/08/21 04:04:42;;;;;;;4.38;0.82;;;23.40;63.40;;;;;;6097467;23;20022;-70
2022/08/21 04:07:08;;;;;;;2.15;1.15;;;23.40;62.80;;;;;;6097529;23;20007;-70
2022/08/21 04:09:34;;;;;;;3.78;0.90;;;23.40;63.00;;;;;;6097818;23;20037;-69
2022/08/21 04:12:00;;;;;;;2.67;0.93;;;23.40;63.30;;;;;;6097693;23;20437;-70
2022/08/21 04:14:26;;;;;;;1.90;1.00;;;23.40;63.60;;;;;;6097173;23;20021;-69
2022/08/21 04:16:52;;;;;;;6.20;0.93;;;23.30;64.10;;;;;;6097662;23;20014;-69
2022/08/21 04:19:17;;;;;;;2.60;0.70;;;23.30;64.00;;;;;;6097453;23;19998;-71
2022/08/21 04:21:43;;;;;;;3.80;0.73;;;23.30;63.80;;;;;;6097643;23;20332;-71
2022/08/21 04:24:10;;;;;;;4.53;0.70;;;23.30;63.30;;;;;;6097408;23;20006;-70
2022/08/21 04:26:36;;;;;;;4.63;0.70;;;23.20;62.70;;;;;;6097480;23;20430;-70
2022/08/21 04:29:04;;;;;;;2.75;0.65;;;23.30;62.40;;;;;;6097593;23;20337;-70
2022/08/21 04:31:30;;;;;;;2.55;0.80;;;23.20;61.80;;;;;;6097491;23;20011;-69
2022/08/21 04:33:56;;;;;;;5.00;0.75;;;23.20;61.80;;;;;;6097621;23;20026;-69
2022/08/21 04:36:22;;;;;;;2.35;0.95;;;23.20;62.60;;;;;;6097373;23;20015;-69
2022/08/21 04:38:48;;;;;;;7.75;1.30;;;23.10;63.10;;;;;;6097242;23;19998;-69
2022/08/21 04:41:14;;;;;;;2.28;0.57;;;23.10;63.90;;;;;;6097425;23;20391;-70
2022/08/21 04:43:40;;;;;;;3.78;0.80;;;23.10;64.30;;;;;;6097255;23;20026;-70
2022/08/21 04:46:07;;;;;;;5.25;1.00;;;23.10;65.40;;;;;;6097335;23;20006;-70
2022/08/21 04:48:33;;;;;;;4.60;1.00;;;23.00;65.40;;;;;;6097390;23;19999;-70
2022/08/21 04:51:30;;;;;;;2.13;0.80;;;23.00;66.30;;;;;;6097174;23;19998;-70
2022/08/21 04:54:18;;;;;;;2.78;0.90;;;23.00;66.40;;;;;;6095882;23;20508;-70
2022/08/21 04:56:59;;;;;;;1.88;0.82;;;23.00;66.30;;;;;;6095763;23;20046;-69
2022/08/21 04:59:32;;;;;;;2.85;1.15;;;22.90;65.60;;;;;;6096931;23;20002;-69
2022/08/21 05:02:00;;;;;;;2.50;0.90;;;22.90;65.30;;;;;;6097411;23;20097;-70
2022/08/21 05:04:30;;;;;;;4.25;0.88;;;22.90;64.50;;;;;;6097281;23;20006;-70
2022/08/21 05:07:00;;;;;;;4.82;0.80;;;22.90;65.00;;;;;;6097144;23;20002;-70
2022/08/21 05:09:26;;;;;;;3.30;0.80;;;22.90;65.50;;;;;;6097312;23;20006;-70
2022/08/21 05:11:52;;;;;;;0.90;0.80;;;22.90;65.40;;;;;;6096852;23;20006;-70
2022/08/21 05:14:19;;;;;;;4.75;1.17;;;22.90;64.90;;;;;;6097067;23;20440;-70
2022/08/21 05:16:45;;;;;;;3.30;0.93;;;22.90;64.60;;;;;;6096802;23;20010;-70
2022/08/21 05:19:11;;;;;;;1.80;0.90;;;22.90;64.70;;;;;;6096711;23;20002;-69
2022/08/21 05:21:41;;;;;;;6.93;1.50;;;22.90;65.20;;;;;;6096882;23;20006;-70
2022/08/21 05:24:07;;;;;;;3.22;1.00;;;23.00;66.20;;;;;;6097062;23;20005;-70
2022/08/21 05:26:32;;;;;;;1.98;1.02;;;23.00;66.90;;;;;;6096904;23;20006;-70
2022/08/21 05:28:58;;;;;;;1.90;1.27;;;23.00;67.30;;;;;;6096787;23;20393;-70
2022/08/21 05:31:24;;;;;;;2.88;1.42;;;23.00;67.80;;;;;;6096995;23;20030;-70
2022/08/21 05:33:51;;;;;;;2.67;1.20;;;23.00;68.20;;;;;;6097199;23;20009;-70
2022/08/21 05:36:18;;;;;;;4.50;1.20;;;23.00;68.10;;;;;;6096816;23;20089;-69
2022/08/21 05:38:43;;;;;;;2.15;0.93;;;23.10;67.80;;;;;;6096964;23;20481;-69
2022/08/21 05:41:09;;;;;;;1.00;0.90;;;23.10;67.30;;;;;;6096653;23;20081;-70
2022/08/21 05:43:36;;;;;;;3.28;0.80;;;23.10;66.80;;;;;;6096838;23;20437;-69
2022/08/21 05:46:04;;;;;;;2.83;0.82;;;23.20;66.20;;;;;;6097386;23;20021;-69
2022/08/21 05:48:30;;;;;;;3.03;0.88;;;23.10;65.50;;;;;;6096972;23;20006;-69
2022/08/21 05:50:56;;;;;;;2.00;0.90;;;23.10;66.10;;;;;;6096853;23;20011;-69
2022/08/21 05:53:23;;;;;;;3.05;0.88;;;23.10;65.10;;;;;;6097206;23;20315;-70
2022/08/21 05:55:50;;;;;;;1.90;0.90;;;23.20;64.70;;;;;;6097071;23;20061;-69
2022/08/21 05:58:18;;;;;;;3.70;0.95;;;23.20;64.70;;;;;;6096642;23;20012;-70
2022/08/21 06:00:47;;;;;;;2.00;0.65;;;23.20;64.50;;;;;;6096857;23;20429;-70
2022/08/21 06:03:19;;;;;;;0.95;0.68;;;23.20;64.30;;;;;;6096585;23;20340;-70
2022/08/21 06:05:46;;;;;;;3.97;0.82;;;23.20;64.30;;;;;;6097627;23;20341;-69
2022/08/21 06:08:12;;;;;;;4.93;1.08;;;23.20;64.10;;;;;;6098831;23;20009;-72
2022/08/21 06:10:38;;;;;;;3.13;0.77;;;23.20;64.20;;;;;;6098949;23;20053;-69
2022/08/21 06:13:04;;;;;;;5.25;1.10;;;23.20;64.10;;;;;;6098711;23;20010;-69
2022/08/21 06:15:30;;;;;;;3.63;1.10;;;23.20;64.70;;;;;;6098369;23;20010;-70
2022/08/21 06:17:56;;;;;;;4.43;1.00;;;23.20;65.00;;;;;;6096873;23;20015;-68
2022/08/21 06:20:22;;;;;;;2.22;1.10;;;23.30;65.00;;;;;;6069506;23;20030;-69
2022/08/21 06:22:48;;;;;;;2.58;1.23;;;23.30;64.70;;;;;;6095614;23;20006;-69
2022/08/21 06:25:14;;;;;;;2.95;1.02;;;23.30;64.70;;;;;;6095612;23;20022;-68
2022/08/21 06:27:40;;;;;;;2.17;1.10;;;23.30;64.60;;;;;;6098210;23;20022;-69
2022/08/21 06:30:07;;;;;;;4.25;1.13;;;23.30;65.00;;;;;;6098212;23;20112;-69
2022/08/21 06:32:32;;;;;;;1.65;1.17;;;23.30;64.90;;;;;;6098635;23;20007;-67
2022/08/21 06:34:58;;;;;;;3.65;1.13;;;23.30;64.80;;;;;;6098434;23;20007;-67
2022/08/21 06:37:24;;;;;;;2.38;0.93;;;23.30;64.50;;;;;;6098413;23;20022;-68
2022/08/21 06:39:49;;;;;;;2.00;1.00;;;23.30;64.30;;;;;;6098817;23;20134;-68
2022/08/21 06:42:16;;;;;;;0.93;0.70;;;23.30;64.30;;;;;;6098464;23;20007;-68
2022/08/21 06:44:43;;;;;;;2.53;0.90;;;23.30;64.50;;;;;;6098696;23;20069;-69
2022/08/21 06:47:08;;;;;;;2.55;0.75;;;23.40;64.30;;;;;;6098286;23;20076;-68
2022/08/21 06:49:35;;;;;;;2.55;0.90;;;23.40;64.20;;;;;;6098088;23;20006;-69
2022/08/21 06:52:01;;;;;;;7.20;0.85;;;23.40;64.30;;;;;;6098439;23;20481;-69
2022/08/21 06:54:27;;;;;;;2.30;0.80;;;23.40;64.10;;;;;;6098219;23;19999;-69
2022/08/21 06:56:52;;;;;;;2.40;0.75;;;23.40;64.30;;;;;;6098561;23;20018;-69
2022/08/21 06:59:18;;;;;;;2.90;0.90;;;23.50;64.40;;;;;;6098162;23;20033;-69
2022/08/21 07:01:44;;;;;;;4.57;0.70;;;23.50;64.30;;;;;;6098292;23;20057;-69
2022/08/21 07:04:10;;;;;;;6.38;1.08;;;23.50;63.60;;;;;;6072544;23;20011;-69
2022/08/21 07:06:36;;;;;;;4.38;0.80;;;23.50;62.80;;;;;;6072460;23;20048;-69
2022/08/21 07:09:03;;;;;;;1.88;0.70;;;23.50;62.50;;;;;;6098122;23;20089;-69
2022/08/21 07:11:29;;;;;;;2.25;0.73;;;23.50;62.60;;;;;;6097692;23;20429;-69
2022/08/21 07:13:56;;;;;;;1.35;0.70;;;23.60;62.70;;;;;;6098070;23;20002;-69
2022/08/21 07:16:22;;;;;;;2.50;0.90;;;23.60;62.60;;;;;;6097827;23;20026;-72
2022/08/21 07:18:48;;;;;;;3.35;0.63;;;23.70;62.20;;;;;;6097781;23;20003;-71
2022/08/21 07:21:15;;;;;;;3.15;0.80;;;23.70;61.90;;;;;;6097958;23;20041;-71
2022/08/21 07:23:47;;;;;;;4.97;0.70;;;23.70;61.80;;;;;;6098164;23;20003;-72
2022/08/21 07:26:16;;;;;;;2.33;0.82;;;23.80;61.70;;;;;;6098072;23;20002;-71
2022/08/21 07:28:42;;;;;;;1.92;0.73;;;23.80;61.60;;;;;;6097446;23;20042;-72
2022/08/21 07:31:10;;;;;;;0.80;0.70;;;23.90;61.40;;;;;;6096254;23;20454;-72
2022/08/21 07:33:36;;;;;;;2.33;0.70;;;23.90;61.40;;;;;;6097570;23;20013;-71
2022/08/21 07:36:03;;;;;;;2.42;0.75;;;23.90;61.30;;;;;;6097552;23;20018;-72
2022/08/21 07:38:28;;;;;;;2.22;0.70;;;23.90;61.30;;;;;;6097513;23;20493;-73
2022/08/21 07:40:56;;;;;;;1.63;0.80;;;23.90;61.10;;;;;;6097261;23;20029;-72
2022/08/21 07:43:22;;;;;;;2.70;0.60;;;23.90;61.10;;;;;;6097370;23;20006;-72
2022/08/21 07:45:51;;;;;;;1.38;0.70;;;24.00;61.20;;;;;;6072048;23;20101;-72
2022/08/21 07:48:17;;;;;;;2.85;0.70;;;24.00;60.70;;;;;;6098003;23;20055;-72
2022/08/21 07:50:43;;;;;;;3.33;0.70;;;24.10;60.70;;;;;;6097898;23;20429;-72
2022/08/21 07:53:08;;;;;;;2.22;1.10;;;24.20;60.60;;;;;;6098005;23;20050;-72
2022/08/21 07:55:34;;;;;;;1.17;0.70;;;24.20;60.30;;;;;;6097710;23;20002;-72
2022/08/21 07:58:00;;;;;;;1.30;0.55;;;24.20;60.30;;;;;;6097729;23;20053;-72
2022/08/21 08:00:28;;;;;;;1.67;0.68;;;24.20;60.40;;;;;;6097735;23;20025;-72
2022/08/21 08:02:55;;;;;;;1.08;0.88;;;24.30;60.30;;;;;;6097980;23;20002;-71
2022/08/21 08:05:28;;;;;;;1.83;0.82;;;24.30;60.20;;;;;;6097849;23;20002;-72
2022/08/21 08:07:54;;;;;;;1.40;0.80;;;24.30;60.10;;;;;;6097599;23;20082;-72
2022/08/21 08:10:21;;;;;;;1.50;0.95;;;24.40;60.50;;;;;;6097871;23;20002;-72
2022/08/21 08:12:48;;;;;;;2.00;0.90;;;24.50;60.20;;;;;;6097544;23;20003;-72
2022/08/21 08:15:19;;;;;;;2.28;0.88;;;24.60;60.00;;;;;;6097312;23;20046;-72
2022/08/21 08:17:45;;;;;;;2.55;1.00;;;24.70;59.70;;;;;;6097808;23;20044;-72
2022/08/21 08:20:13;;;;;;;3.35;0.98;;;24.80;59.40;;;;;;6097805;23;20077;-72
2022/08/21 08:22:39;;;;;;;3.95;0.90;;;25.00;59.50;;;;;;6097471;23;20054;-72
2022/08/21 08:25:08;;;;;;;1.50;0.80;;;25.10;58.80;;;;;;6097871;23;20329;-72
2022/08/21 08:27:33;;;;;;;3.15;0.60;;;25.20;57.70;;;;;;6097228;23;20018;-72
2022/08/21 08:29:59;;;;;;;0.80;0.80;;;25.30;55.80;;;;;;6096973;23;20005;-72
2022/08/21 08:32:25;;;;;;;1.98;0.90;;;25.40;54.80;;;;;;6097422;23;20022;-72
2022/08/21 08:34:52;;;;;;;3.15;0.85;;;25.50;54.70;;;;;;6071687;23;20041;-72
2022/08/21 08:37:19;;;;;;;1.33;0.60;;;25.60;54.60;;;;;;6097780;23;20066;-72
2022/08/21 08:39:46;;;;;;;1.17;0.65;;;25.70;54.50;;;;;;6097236;23;20037;-72
2022/08/21 08:42:20;;;;;;;2.13;0.70;;;25.80;54.40;;;;;;6097240;23;20333;-72
2022/08/21 08:44:47;;;;;;;5.32;1.00;;;25.80;54.20;;;;;;6096779;23;20005;-72
2022/08/21 08:47:15;;;;;;;4.30;0.80;;;25.80;54.70;;;;;;6097198;23;20053;-72
2022/08/21 08:49:43;;;;;;;2.83;0.63;;;25.90;54.60;;;;;;6097442;23;20341;-72
2022/08/21 08:52:27;;;;;;;2.25;0.75;;;25.90;54.30;;;;;;6097128;23;20004;-72
2022/08/21 08:55:05;;;;;;;2.45;0.73;;;25.90;53.30;;;;;;6097077;23;20342;-72
2022/08/21 08:57:32;;;;;;;1.48;0.60;;;25.90;54.20;;;;;;6097220;23;20045;-72
2022/08/21 09:00:00;;;;;;;2.05;0.73;;;26.00;52.80;;;;;;6097437;23;20006;-72
2022/08/21 09:02:29;;;;;;;4.75;0.80;;;26.10;53.30;;;;;;6097634;23;20362;-72
2022/08/21 09:04:55;;;;;;;4.05;0.80;;;26.20;53.20;;;;;;6097290;23;20006;-72
2022/08/21 09:07:41;;;;;;;2.95;1.15;;;26.20;53.10;;;;;;6097142;23;20006;-72
2022/08/21 09:10:21;;;;;;;4.00;1.10;;;26.30;52.60;;;;;;6071701;23;20014;-72
2022/08/21 09:13:11;;;;;;;1.17;0.80;;;26.30;53.00;;;;;;6096598;23;20501;-72
2022/08/21 09:16:03;;;;;;;3.13;1.50;;;26.50;53.20;;;;;;6095836;23;20011;-72
2022/08/21 09:18:29;;;;;;;;;;;26.50;53.00;;;;;;6090915;23;20037;-72
2022/08/21 09:21:00;;;;;;;4.35;0.90;;;26.60;52.90;;;;;;6095805;23;20321;-72
2022/08/21 09:23:32;;;;;;;2.25;0.70;;;26.70;53.40;;;;;;6096615;23;20006;-72
2022/08/21 09:26:12;;;;;;;1.70;0.90;;;26.80;53.10;;;;;;6096081;23;20006;-72
2022/08/21 09:28:38;;;;;;;3.15;0.75;;;26.80;52.40;;;;;;6095710;23;20346;-72
2022/08/21 09:31:28;;;;;;;3.83;0.85;;;26.80;52.50;;;;;;6095592;23;20006;-73
2022/08/21 09:34:04;;;;;;;3.63;1.00;;;26.80;53.00;;;;;;6095867;23;20007;-73
2022/08/21 09:36:42;;;;;;;1.83;0.88;;;26.90;53.40;;;;;;6096903;23;20018;-72
2022/08/21 09:39:10;;;;;;;4.95;1.13;;;26.90;52.60;;;;;;6096194;23;20010;-72
2022/08/21 09:41:37;;;;;;;3.20;0.98;;;27.00;52.70;;;;;;6096265;23;20037;-72
2022/08/21 09:44:04;;;;;;;2.10;0.93;;;27.10;53.10;;;;;;6096710;23;20006;-73
2022/08/21 09:46:31;;;;;;;3.40;1.20;;;27.10;53.10;;;;;;6096665;23;20009;-72
2022/08/21 09:49:00;;;;;;;2.78;0.80;;;27.20;53.00;;;;;;6096870;23;20373;-72
2022/08/21 09:51:29;;;;;;;3.60;0.98;;;27.30;52.70;;;;;;6096166;23;20077;-72
2022/08/21 09:54:18;;;;;;;4.00;0.75;;;27.50;52.20;;;;;;6096239;23;20006;-72
2022/08/21 09:57:38;;;;;;;3.50;0.75;;;27.50;51.10;;;;;;6095742;23;20023;-72
2022/08/21 10:00:16;;;;;;;1.25;0.60;;;27.70;50.90;;;;;;5979506;24;20094;-72
2022/08/21 10:02:41;;;;;;;2.67;0.80;;;27.80;50.40;;;;;;6097029;23;20006;-72
2022/08/21 10:05:16;;;;;;;5.60;0.80;;;27.90;50.40;;;;;;6096221;23;20364;-72
2022/08/21 10:07:42;;;;;;;2.88;0.80;;;27.90;50.10;;;;;;6096541;23;20006;-72
2022/08/21 10:59:43;;;;;;;0.90;0.60;;;28.90;48.00;;;;;;6092649;23;20097;-72
2022/08/21 11:02:15;;;;;;;2.75;0.50;;;29.00;48.00;;;;;;6094492;23;20042;-73
2022/08/21 11:04:48;;;;;;;1.75;0.77;;;29.00;46.50;;;;;;6097481;23;20254;-72
2022/08/21 11:07:42;;;;;;;0.98;0.65;;;29.10;47.20;;;;;;6098167;23;20026;-73
2022/08/21 11:10:17;;;;;;;2.28;0.73;;;29.10;47.40;;;;;;6097281;23;20014;-73
2022/08/21 11:12:50;;;;;;;0.82;0.60;;;29.20;48.10;;;;;;6097623;23;20002;-73
2022/08/21 11:15:45;;;;;;;5.25;0.73;;;29.30;47.80;;;;;;6098065;23;20446;-72
2022/08/21 11:18:13;;;;;;;2.00;0.63;;;29.30;46.80;;;;;;6072534;23;20006;-72
2022/08/21 11:21:24;;;;;;;2.17;0.60;;;29.40;46.50;;;;;;6098082;23;20002;-73
2022/08/21 11:24:17;;;;;;;2.28;0.63;;;29.40;46.20;;;;;;6095122;23;20061;-73
2022/08/21 11:26:45;;;;;;;1.33;0.63;;;29.40;46.10;;;;;;6094679;23;20437;-74
2022/08/21 11:29:24;;;;;;;1.80;0.52;;;29.50;45.80;;;;;;6095974;23;20009;-73
2022/08/21 11:31:58;;;;;;;1.58;0.68;;;29.50;44.90;;;;;;6097816;23;20469;-73
2022/08/21 11:34:24;;;;;;;2.55;0.60;;;29.60;45.10;;;;;;6098163;23;20007;-73
2022/08/21 11:37:08;;;;;;;2.13;0.50;;;29.60;45.90;;;;;;6096929;23;20421;-73
2022/08/21 11:39:44;;;;;;;2.38;0.70;;;29.70;45.00;;;;;;6094611;23;19999;-73
2022/08/21 11:42:23;;;;;;;4.53;1.23;;;29.70;44.50;;;;;;6094788;23;20006;-73
2022/08/21 11:44:49;;;;;;;2.65;0.85;;;29.70;45.30;;;;;;6096563;23;20044;-71
2022/08/21 11:47:25;;;;;;;3.20;0.80;;;29.80;45.80;;;;;;6097754;23;20333;-72
2022/08/21 11:50:12;;;;;;;3.13;0.77;;;29.80;45.90;;;;;;6097401;23;19998;-72
2022/08/21 11:52:48;;;;;;;1.63;0.57;;;29.90;46.10;;;;;;6097204;23;20006;-72
2022/08/21 11:55:29;;;;;;;2.65;0.50;;;29.90;45.60;;;;;;6097519;23;19998;-72
2022/08/21 11:58:05;;;;;;;1.70;0.65;;;29.90;44.80;;;;;;6097748;23;20445;-72
2022/08/21 12:00:34;;;;;;;1.25;0.55;;;30.00;44.60;;;;;;6097628;23;20128;-73
2022/08/21 12:03:10;;;;;;;3.58;0.65;;;30.00;44.80;;;;;;6097365;23;20007;-73
2022/08/21 12:05:52;;;;;;;3.10;0.40;;;30.00;45.00;;;;;;6097515;23;20010;-72
2022/08/21 12:08:32;;;;;;;1.42;0.65;;;30.10;43.90;;;;;;6096845;23;20112;-72
2022/08/21 12:11:21;;;;;;;2.70;0.80;;;30.10;44.60;;;;;;6097398;23;20026;-72
2022/08/21 12:14:00;;;;;;;1.30;0.57;;;30.10;45.10;;;;;;6097125;23;20429;-72
2022/08/21 12:16:36;;;;;;;1.13;0.60;;;30.20;46.20;;;;;;6096918;23;20385;-72
2022/08/21 12:19:08;;;;;;;4.03;0.80;;;30.20;45.80;;;;;;6071430;23;20061;-72
2022/08/21 12:21:48;;;;;;;1.63;0.80;;;30.20;45.50;;;;;;6097173;23;20006;-72
2022/08/21 12:24:13;;;;;;;4.40;0.80;;;30.20;46.10;;;;;;6097040;23;19998;-72
2022/08/21 12:26:52;;;;;;;6.05;0.93;;;30.30;46.20;;;;;;6097643;23;20007;-74
2022/08/21 12:29:33;;;;;;;2.97;0.80;;;30.30;46.80;;;;;;6097367;23;20007;-72
2022/08/21 12:32:10;;;;;;;1.67;0.60;;;30.30;47.20;;;;;;6097321;23;20078;-72
2022/08/21 12:34:48;;;;;;;0.75;0.57;;;30.40;47.20;;;;;;6097358;23;20010;-72
2022/08/21 12:37:14;;;;;;;2.83;0.90;;;30.40;45.90;;;;;;6096974;23;20015;-72
2022/08/21 12:39:44;;;;;;;3.92;0.80;;;30.40;45.80;;;;;;6096923;23;20377;-72
2022/08/21 12:42:18;;;;;;;2.05;0.75;;;30.50;46.20;;;;;;6097193;23;20002;-72
2022/08/21 12:44:51;;;;;;;2.53;0.70;;;30.50;47.50;;;;;;6096955;23;20445;-72
2022/08/21 12:47:43;;;;;;;1.73;0.80;;;30.50;46.70;;;;;;6097183;23;20015;-72
2022/08/21 12:50:35;;;;;;;5.72;0.77;;;30.60;46.80;;;;;;6094066;23;20060;-72
2022/08/21 12:53:35;;;;;;;2.08;0.95;;;30.50;47.30;;;;;;6093898;23;20338;-72
2022/08/21 12:56:09;;;;;;;4.28;0.95;;;30.60;48.20;;;;;;6096695;23;20038;-72
2022/08/21 12:58:35;;;;;;;3.72;1.10;;;30.60;47.50;;;;;;6096688;23;20022;-72
2022/08/21 13:01:07;;;;;;;6.88;1.20;;;30.60;48.00;;;;;;6097402;23;20003;-71
2022/08/21 13:03:36;;;;;;;3.88;0.90;;;30.60;48.10;;;;;;6097138;23;20007;-72
2022/08/21 13:06:06;;;;;;;3.33;0.90;;;30.60;48.10;;;;;;6097183;23;20002;-71
2022/08/21 13:08:34;;;;;;;3.67;1.35;;;30.60;48.40;;;;;;6097000;23;20069;-72
2022/08/21 13:11:04;;;;;;;5.10;0.98;;;30.70;48.60;;;;;;6097048;23;20007;-72
2022/08/21 13:13:30;;;;;;;3.17;0.80;;;30.70;48.50;;;;;;6071258;23;20006;-72
2022/08/21 13:15:59;;;;;;;2.50;1.13;;;30.60;48.60;;;;;;6096469;23;20014;-72
2022/08/21 13:18:30;;;;;;;3.60;0.80;;;30.60;49.00;;;;;;6096873;23;20097;-71
2022/08/21 13:21:07;;;;;;;;;;;30.60;49.20;;;;;;6097395;23;20009;-72
2022/08/21 13:23:33;;;;;;;3.15;0.80;;;30.60;49.20;;;;;;6095304;23;19901;-72
2022/08/21 13:25:59;;;;;;;3.35;0.90;;;30.60;49.70;;;;;;6096817;23;20074;-72
2022/08/21 13:28:33;;;;;;;3.63;0.90;;;30.70;49.70;;;;;;6097075;23;19998;-72
2022/08/21 13:31:01;;;;;;;5.45;1.10;;;30.70;49.70;;;;;;6096996;23;20006;-72
2022/08/21 13:33:33;;;;;;;9.02;1.15;;;30.70;49.50;;;;;;6096846;23;20006;-73
2022/08/21 13:36:09;;;;;;;5.10;0.90;;;30.70;50.30;;;;;;6096605;23;20342;-72
2022/08/21 13:38:37;;;;;;;4.35;0.80;;;30.80;49.50;;;;;;6071475;23;20010;-72
2022/08/21 13:41:30;;;;;;;3.28;1.08;;;30.70;48.80;;;;;;6096739;23;20013;-72
2022/08/21 13:44:15;;;;;;;3.72;0.90;;;30.70;48.90;;;;;;6085195;23;20437;-72
2022/08/21 13:46:42;;;;;;;3.30;0.60;;;30.60;48.90;;;;;;6096738;23;20006;-73
2022/08/21 13:49:09;;;;;;;3.28;0.73;;;30.50;48.90;;;;;;6096630;23;20063;-72
2022/08/21 13:51:36;;;;;;;2.92;0.80;;;30.40;48.80;;;;;;6071035;23;20007;-71